sensor_id;sensor_type;location;lat;lon;timestamp;temperature;humidity
45012;DHT22;63444;48.148;11.542;2023-07-20T00:02:20;24.30;77.70
45012;DHT22;63444;48.148;11.542;2023-07-20T00:04:46;24.20;78.10
45012;DHT22;63444;48.148;11.542;2023-07-20T00:07:11;24.20;78.00
45012;DHT22;63444;48.148;11.542;2023-07-20T00:09:37;24.20;77.90
45012;DHT22;63444;48.148;11.542;2023-07-20T00:12:03;24.20;77.90
45012;DHT22;63444;48.148;11.542;2023-07-20T00:14:28;24.20;78.00
45012;DHT22;63444;48.148;11.542;2023-07-20T00:16:55;24.20;78.00
45012;DHT22;63444;48.148;11.542;2023-07-20T00:19:27;24.20;78.30
45012;DHT22;63444;48.148;11.542;2023-07-20T00:21:53;24.20;78.20
45012;DHT22;63444;48.148;11.542;2023-07-20T00:24:20;24.20;78.10
45012;DHT22;63444;48.148;11.542;2023-07-20T00:26:45;24.10;78.30
45012;DHT22;63444;48.148;11.542;2023-07-20T00:29:11;24.10;78.20
45012;DHT22;63444;48.148;11.542;2023-07-20T00:31:37;24.10;78.10
45012;DHT22;63444;48.148;11.542;2023-07-20T00:34:05;24.00;78.00
45012;DHT22;63444;48.148;11.542;2023-07-20T00:36:32;24.00;78.20
45012;DHT22;63444;48.148;11.542;2023-07-20T00:38:58;24.00;78.30
45012;DHT22;63444;48.148;11.542;2023-07-20T00:41:23;24.00;78.40
45012;DHT22;63444;48.148;11.542;2023-07-20T00:43:50;24.00;78.50
45012;DHT22;63444;48.148;11.542;2023-07-20T00:46:16;24.00;78.60
45012;DHT22;63444;48.148;11.542;2023-07-20T00:48:42;24.00;79.30
45012;DHT22;63444;48.148;11.542;2023-07-20T00:51:08;23.90;78.50
45012;DHT22;63444;48.148;11.542;2023-07-20T00:53:34;24.00;78.80
45012;DHT22;63444;48.148;11.542;2023-07-20T00:55:59;24.00;78.80
45012;DHT22;63444;48.148;11.542;2023-07-20T00:58:25;24.00;78.90
45012;DHT22;63444;48.148;11.542;2023-07-20T01:00:51;24.00;79.00
45012;DHT22;63444;48.148;11.542;2023-07-20T01:03:17;23.90;79.00
45012;DHT22;63444;48.148;11.542;2023-07-20T01:05:51;24.00;79.20
45012;DHT22;63444;48.148;11.542;2023-07-20T01:08:26;23.90;79.20
45012;DHT22;63444;48.148;11.542;2023-07-20T01:10:59;23.90;79.30
45012;DHT22;63444;48.148;11.542;2023-07-20T01:13:25;24.00;79.50
45012;DHT22;63444;48.148;11.542;2023-07-20T01:16:01;23.90;79.50
45012;DHT22;63444;48.148;11.542;2023-07-20T01:18:26;23.90;79.80
45012;DHT22;63444;48.148;11.542;2023-07-20T01:21:03;23.90;79.80
45012;DHT22;63444;48.148;11.542;2023-07-20T01:31:25;23.70;80.10
45012;DHT22;63444;48.148;11.542;2023-07-20T01:33:54;23.80;80.20
45012;DHT22;63444;48.148;11.542;2023-07-20T01:36:22;23.70;80.30
45012;DHT22;63444;48.148;11.542;2023-07-20T01:38:49;23.70;80.30
45012;DHT22;63444;48.148;11.542;2023-07-20T01:41:15;23.70;80.20
45012;DHT22;63444;48.148;11.542;2023-07-20T01:43:42;23.70;80.50
45012;DHT22;63444;48.148;11.542;2023-07-20T01:46:08;23.70;80.60
45012;DHT22;63444;48.148;11.542;2023-07-20T01:48:33;23.70;80.70
45012;DHT22;63444;48.148;11.542;2023-07-20T01:50:59;23.70;80.50
45012;DHT22;63444;48.148;11.542;2023-07-20T01:53:24;23.70;80.50
45012;DHT22;63444;48.148;11.542;2023-07-20T01:55:53;23.70;80.60
45012;DHT22;63444;48.148;11.542;2023-07-20T01:58:19;23.70;80.60
45012;DHT22;63444;48.148;11.542;2023-07-20T02:00:44;23.60;80.70
45012;DHT22;63444;48.148;11.542;2023-07-20T02:03:10;23.70;80.70
45012;DHT22;63444;48.148;11.542;2023-07-20T02:05:37;23.60;80.60
45012;DHT22;63444;48.148;11.542;2023-07-20T02:08:03;23.60;80.60
45012;DHT22;63444;48.148;11.542;2023-07-20T02:10:28;23.60;80.60
45012;DHT22;63444;48.148;11.542;2023-07-20T02:12:54;23.60;80.60
45012;DHT22;63444;48.148;11.542;2023-07-20T02:15:20;23.60;80.80
45012;DHT22;63444;48.148;11.542;2023-07-20T02:17:46;23.50;80.70
45012;DHT22;63444;48.148;11.542;2023-07-20T02:20:12;23.50;80.70
45012;DHT22;63444;48.148;11.542;2023-07-20T02:22:38;23.50;80.80
45012;DHT22;63444;48.148;11.542;2023-07-20T02:25:08;23.50;81.50
45012;DHT22;63444;48.148;11.542;2023-07-20T02:27:34;23.50;80.70
45012;DHT22;63444;48.148;11.542;2023-07-20T02:30:00;23.50;80.50
45012;DHT22;63444;48.148;11.542;2023-07-20T02:32:25;23.50;80.50
45012;DHT22;63444;48.148;11.542;2023-07-20T02:34:51;23.50;80.30
45012;DHT22;63444;48.148;11.542;2023-07-20T02:37:17;23.40;80.30
45012;DHT22;63444;48.148;11.542;2023-07-20T02:39:43;23.40;80.70
45012;DHT22;63444;48.148;11.542;2023-07-20T02:42:08;23.40;80.60
45012;DHT22;63444;48.148;11.542;2023-07-20T02:44:34;23.40;80.80
45012;DHT22;63444;48.148;11.542;2023-07-20T02:47:00;23.30;80.60
45012;DHT22;63444;48.148;11.542;2023-07-20T02:49:26;23.30;80.10
45012;DHT22;63444;48.148;11.542;2023-07-20T02:51:51;23.30;80.00
45012;DHT22;63444;48.148;11.542;2023-07-20T02:54:17;23.30;79.70
45012;DHT22;63444;48.148;11.542;2023-07-20T02:56:43;23.30;79.70
45012;DHT22;63444;48.148;11.542;2023-07-20T02:59:08;23.30;80.30
45012;DHT22;63444;48.148;11.542;2023-07-20T03:01:34;23.30;79.30
45012;DHT22;63444;48.148;11.542;2023-07-20T03:04:00;23.20;79.60
45012;DHT22;63444;48.148;11.542;2023-07-20T03:06:25;23.20;81.40
45012;DHT22;63444;48.148;11.542;2023-07-20T03:08:51;23.40;82.50
45012;DHT22;63444;48.148;11.542;2023-07-20T03:11:20;23.20;82.30
45012;DHT22;63444;48.148;11.542;2023-07-20T03:13:46;23.20;82.80
45012;DHT22;63444;48.148;11.542;2023-07-20T03:16:13;23.10;83.40
45012;DHT22;63444;48.148;11.542;2023-07-20T03:18:41;23.10;82.80
45012;DHT22;63444;48.148;11.542;2023-07-20T03:21:08;23.00;83.00
45012;DHT22;63444;48.148;11.542;2023-07-20T03:23:34;22.90;82.90
45012;DHT22;63444;48.148;11.542;2023-07-20T03:26:00;22.90;83.30
45012;DHT22;63444;48.148;11.542;2023-07-20T03:28:26;22.80;83.90
45012;DHT22;63444;48.148;11.542;2023-07-20T03:30:58;22.80;84.30
45012;DHT22;63444;48.148;11.542;2023-07-20T03:33:26;22.80;84.70
45012;DHT22;63444;48.148;11.542;2023-07-20T03:35:53;22.70;87.60
45012;DHT22;63444;48.148;11.542;2023-07-20T03:38:19;22.70;88.60
45012;DHT22;63444;48.148;11.542;2023-07-20T03:40:52;22.60;89.30
45012;DHT22;63444;48.148;11.542;2023-07-20T03:43:18;22.50;90.30
45012;DHT22;63444;48.148;11.542;2023-07-20T03:45:43;22.40;90.40
45012;DHT22;63444;48.148;11.542;2023-07-20T03:48:11;22.30;90.30
45012;DHT22;63444;48.148;11.542;2023-07-20T03:50:36;22.20;90.50
45012;DHT22;63444;48.148;11.542;2023-07-20T03:53:02;22.20;90.50
45012;DHT22;63444;48.148;11.542;2023-07-20T03:55:27;22.10;90.60
45012;DHT22;63444;48.148;11.542;2023-07-20T03:57:53;22.00;91.00
45012;DHT22;63444;48.148;11.542;2023-07-20T04:00:19;22.00;91.50
45012;DHT22;63444;48.148;11.542;2023-07-20T04:02:44;21.90;91.80
45012;DHT22;63444;48.148;11.542;2023-07-20T04:05:10;21.80;91.70
45012;DHT22;63444;48.148;11.542;2023-07-20T04:07:36;21.80;91.90
45012;DHT22;63444;48.148;11.542;2023-07-20T04:10:01;21.70;91.60
45012;DHT22;63444;48.148;11.542;2023-07-20T04:12:27;21.70;91.70
45012;DHT22;63444;48.148;11.542;2023-07-20T04:14:52;21.70;91.90
45012;DHT22;63444;48.148;11.542;2023-07-20T04:17:18;21.70;91.80
45012;DHT22;63444;48.148;11.542;2023-07-20T04:19:44;21.60;91.80
45012;DHT22;63444;48.148;11.542;2023-07-20T04:22:09;21.60;91.90
45012;DHT22;63444;48.148;11.542;2023-07-20T04:24:35;21.60;92.40
45012;DHT22;63444;48.148;11.542;2023-07-20T04:27:00;21.60;92.20
45012;DHT22;63444;48.148;11.542;2023-07-20T04:29:26;21.60;92.20
45012;DHT22;63444;48.148;11.542;2023-07-20T04:31:52;21.50;92.00
45012;DHT22;63444;48.148;11.542;2023-07-20T04:34:17;21.50;92.00
45012;DHT22;63444;48.148;11.542;2023-07-20T04:36:43;21.50;92.00
45012;DHT22;63444;48.148;11.542;2023-07-20T04:39:09;21.50;92.20
45012;DHT22;63444;48.148;11.542;2023-07-20T04:41:35;21.50;92.20
45012;DHT22;63444;48.148;11.542;2023-07-20T04:44:01;21.50;92.40
45012;DHT22;63444;48.148;11.542;2023-07-20T04:46:26;21.50;92.40
45012;DHT22;63444;48.148;11.542;2023-07-20T04:48:52;21.40;92.40
45012;DHT22;63444;48.148;11.542;2023-07-20T04:51:17;21.40;92.50
45012;DHT22;63444;48.148;11.542;2023-07-20T04:53:46;21.40;92.40
45012;DHT22;63444;48.148;11.542;2023-07-20T04:56:13;21.50;92.60
45012;DHT22;63444;48.148;11.542;2023-07-20T04:58:39;21.50;92.60
45012;DHT22;63444;48.148;11.542;2023-07-20T05:01:04;21.40;92.40
45012;DHT22;63444;48.148;11.542;2023-07-20T05:03:30;21.50;92.20
45012;DHT22;63444;48.148;11.542;2023-07-20T05:05:57;21.50;92.10
45012;DHT22;63444;48.148;11.542;2023-07-20T05:08:22;21.50;92.00
45012;DHT22;63444;48.148;11.542;2023-07-20T05:10:48;21.50;91.90
45012;DHT22;63444;48.148;11.542;2023-07-20T05:13:14;21.50;91.80
45012;DHT22;63444;48.148;11.542;2023-07-20T05:15:40;21.50;92.20
45012;DHT22;63444;48.148;11.542;2023-07-20T05:18:05;21.40;91.80
45012;DHT22;63444;48.148;11.542;2023-07-20T05:20:31;21.40;91.60
45012;DHT22;63444;48.148;11.542;2023-07-20T05:22:59;21.50;91.50
45012;DHT22;63444;48.148;11.542;2023-07-20T05:25:25;21.40;91.30
45012;DHT22;63444;48.148;11.542;2023-07-20T05:27:51;21.50;90.50
45012;DHT22;63444;48.148;11.542;2023-07-20T05:30:17;21.50;90.10
45012;DHT22;63444;48.148;11.542;2023-07-20T05:32:43;21.50;88.90
45012;DHT22;63444;48.148;11.542;2023-07-20T05:35:11;21.40;88.60
45012;DHT22;63444;48.148;11.542;2023-07-20T05:37:37;21.30;88.50
45012;DHT22;63444;48.148;11.542;2023-07-20T05:40:04;21.20;88.50
45012;DHT22;63444;48.148;11.542;2023-07-20T05:42:30;21.20;88.30
45012;DHT22;63444;48.148;11.542;2023-07-20T05:44:56;21.10;87.90
45012;DHT22;63444;48.148;11.542;2023-07-20T05:47:21;21.20;87.60
45012;DHT22;63444;48.148;11.542;2023-07-20T05:49:47;21.20;86.90
45012;DHT22;63444;48.148;11.542;2023-07-20T05:52:13;21.20;85.80
45012;DHT22;63444;48.148;11.542;2023-07-20T05:54:38;21.20;85.20
45012;DHT22;63444;48.148;11.542;2023-07-20T05:57:04;21.30;85.10
45012;DHT22;63444;48.148;11.542;2023-07-20T05:59:30;21.30;83.80
45012;DHT22;63444;48.148;11.542;2023-07-20T06:01:56;21.30;84.30
45012;DHT22;63444;48.148;11.542;2023-07-20T06:04:22;21.40;83.40
45012;DHT22;63444;48.148;11.542;2023-07-20T06:06:48;21.40;82.80
45012;DHT22;63444;48.148;11.542;2023-07-20T06:09:13;21.50;82.50
45012;DHT22;63444;48.148;11.542;2023-07-20T06:11:39;21.70;82.30
45012;DHT22;63444;48.148;11.542;2023-07-20T06:14:05;21.80;82.00
45012;DHT22;63444;48.148;11.542;2023-07-20T06:16:31;21.80;81.40
45012;DHT22;63444;48.148;11.542;2023-07-20T06:18:56;21.90;80.90
45012;DHT22;63444;48.148;11.542;2023-07-20T06:21:22;22.10;81.10
45012;DHT22;63444;48.148;11.542;2023-07-20T06:23:48;22.30;80.10
45012;DHT22;63444;48.148;11.542;2023-07-20T06:26:13;22.50;79.70
45012;DHT22;63444;48.148;11.542;2023-07-20T06:28:39;22.60;79.60
45012;DHT22;63444;48.148;11.542;2023-07-20T06:31:05;22.60;79.70
45012;DHT22;63444;48.148;11.542;2023-07-20T06:33:30;22.50;79.40
45012;DHT22;63444;48.148;11.542;2023-07-20T06:35:57;22.60;80.30
45012;DHT22;63444;48.148;11.542;2023-07-20T06:38:23;22.60;79.20
45012;DHT22;63444;48.148;11.542;2023-07-20T06:40:49;22.50;79.30
45012;DHT22;63444;48.148;11.542;2023-07-20T06:43:15;22.60;79.20
45012;DHT22;63444;48.148;11.542;2023-07-20T06:45:41;22.60;79.30
45012;DHT22;63444;48.148;11.542;2023-07-20T06:48:07;22.60;79.10
45012;DHT22;63444;48.148;11.542;2023-07-20T06:50:32;22.60;79.20
45012;DHT22;63444;48.148;11.542;2023-07-20T06:52:58;22.60;78.90
45012;DHT22;63444;48.148;11.542;2023-07-20T06:55:25;22.70;79.10
45012;DHT22;63444;48.148;11.542;2023-07-20T06:57:51;22.70;79.00
45012;DHT22;63444;48.148;11.542;2023-07-20T07:00:17;23.00;78.60
45012;DHT22;63444;48.148;11.542;2023-07-20T07:02:43;23.30;77.40
45012;DHT22;63444;48.148;11.542;2023-07-20T07:05:08;23.40;77.40
45012;DHT22;63444;48.148;11.542;2023-07-20T07:07:34;23.50;77.40
45012;DHT22;63444;48.148;11.542;2023-07-20T07:10:00;23.60;77.10
45012;DHT22;63444;48.148;11.542;2023-07-20T07:12:29;23.70;77.30
45012;DHT22;63444;48.148;11.542;2023-07-20T07:14:54;23.90;76.80
45012;DHT22;63444;48.148;11.542;2023-07-20T07:17:20;24.00;76.30
45012;DHT22;63444;48.148;11.542;2023-07-20T07:19:45;24.20;75.40
45012;DHT22;63444;48.148;11.542;2023-07-20T07:22:11;24.50;75.30
45012;DHT22;63444;48.148;11.542;2023-07-20T07:24:37;24.60;75.00
45012;DHT22;63444;48.148;11.542;2023-07-20T07:27:02;24.80;73.90
45012;DHT22;63444;48.148;11.542;2023-07-20T07:29:29;24.80;73.10
45012;DHT22;63444;48.148;11.542;2023-07-20T07:31:55;24.80;73.20
45012;DHT22;63444;48.148;11.542;2023-07-20T07:34:20;24.80;72.10
45012;DHT22;63444;48.148;11.542;2023-07-20T07:36:46;24.60;72.40
45012;DHT22;63444;48.148;11.542;2023-07-20T07:39:12;24.60;73.00
45012;DHT22;63444;48.148;11.542;2023-07-20T07:41:38;24.50;74.10
45012;DHT22;63444;48.148;11.542;2023-07-20T07:44:04;24.50;73.40
45012;DHT22;63444;48.148;11.542;2023-07-20T07:46:29;24.40;73.20
45012;DHT22;63444;48.148;11.542;2023-07-20T07:48:55;24.40;73.10
45012;DHT22;63444;48.148;11.542;2023-07-20T07:51:20;24.40;72.90
45012;DHT22;63444;48.148;11.542;2023-07-20T07:53:46;24.40;72.50
45012;DHT22;63444;48.148;11.542;2023-07-20T07:56:12;24.40;72.40
45012;DHT22;63444;48.148;11.542;2023-07-20T07:58:37;24.30;71.20
45012;DHT22;63444;48.148;11.542;2023-07-20T08:01:04;24.20;71.70
45012;DHT22;63444;48.148;11.542;2023-07-20T08:03:29;24.20;71.20
45012;DHT22;63444;48.148;11.542;2023-07-20T08:05:55;24.20;71.60
45012;DHT22;63444;48.148;11.542;2023-07-20T08:08:22;24.30;71.60
45012;DHT22;63444;48.148;11.542;2023-07-20T08:10:48;24.40;72.30
45012;DHT22;63444;48.148;11.542;2023-07-20T08:13:13;24.60;72.00
45012;DHT22;63444;48.148;11.542;2023-07-20T08:15:39;24.80;72.00
45012;DHT22;63444;48.148;11.542;2023-07-20T08:18:05;24.90;70.20
45012;DHT22;63444;48.148;11.542;2023-07-20T08:20:31;25.00;70.50
45012;DHT22;63444;48.148;11.542;2023-07-20T08:22:57;25.20;70.30
45012;DHT22;63444;48.148;11.542;2023-07-20T08:25:25;25.40;69.90
45012;DHT22;63444;48.148;11.542;2023-07-20T08:27:50;25.50;69.70
45012;DHT22;63444;48.148;11.542;2023-07-20T08:30:16;25.70;69.00
45012;DHT22;63444;48.148;11.542;2023-07-20T08:32:42;25.90;69.10
45012;DHT22;63444;48.148;11.542;2023-07-20T08:35:08;26.10;67.90
45012;DHT22;63444;48.148;11.542;2023-07-20T08:37:34;26.20;66.40
45012;DHT22;63444;48.148;11.542;2023-07-20T08:40:00;26.30;66.60
45012;DHT22;63444;48.148;11.542;2023-07-20T08:42:27;26.30;65.70
45012;DHT22;63444;48.148;11.542;2023-07-20T08:44:53;26.30;65.50
45012;DHT22;63444;48.148;11.542;2023-07-20T08:47:20;26.20;67.20
45012;DHT22;63444;48.148;11.542;2023-07-20T08:49:48;26.20;65.30
45012;DHT22;63444;48.148;11.542;2023-07-20T08:52:14;26.10;65.50
45012;DHT22;63444;48.148;11.542;2023-07-20T08:54:40;26.00;65.70
45012;DHT22;63444;48.148;11.542;2023-07-20T08:57:06;26.00;66.10
45012;DHT22;63444;48.148;11.542;2023-07-20T08:59:32;25.90;66.00
45012;DHT22;63444;48.148;11.542;2023-07-20T09:02:00;25.80;65.50
45012;DHT22;63444;48.148;11.542;2023-07-20T09:04:26;25.70;65.70
45012;DHT22;63444;48.148;11.542;2023-07-20T09:06:52;25.70;66.70
45012;DHT22;63444;48.148;11.542;2023-07-20T09:09:18;25.80;67.10
45012;DHT22;63444;48.148;11.542;2023-07-20T09:11:47;25.90;67.30
45012;DHT22;63444;48.148;11.542;2023-07-20T09:14:12;26.00;67.00
45012;DHT22;63444;48.148;11.542;2023-07-20T09:16:48;26.10;66.70
45012;DHT22;63444;48.148;11.542;2023-07-20T09:19:17;26.20;66.10
45012;DHT22;63444;48.148;11.542;2023-07-20T09:21:50;26.30;65.60
45012;DHT22;63444;48.148;11.542;2023-07-20T09:24:18;26.40;66.70
45012;DHT22;63444;48.148;11.542;2023-07-20T09:26:45;26.60;65.90
45012;DHT22;63444;48.148;11.542;2023-07-20T09:29:11;26.70;64.60
45012;DHT22;63444;48.148;11.542;2023-07-20T09:31:37;26.80;64.60
45012;DHT22;63444;48.148;11.542;2023-07-20T09:34:03;26.80;65.20
45012;DHT22;63444;48.148;11.542;2023-07-20T09:36:32;26.80;65.00
45012;DHT22;63444;48.148;11.542;2023-07-20T09:38:59;26.90;63.90
45012;DHT22;63444;48.148;11.542;2023-07-20T09:41:24;26.90;63.90
45012;DHT22;63444;48.148;11.542;2023-07-20T09:43:52;26.90;62.70
45012;DHT22;63444;48.148;11.542;2023-07-20T09:46:18;26.70;62.50
45012;DHT22;63444;48.148;11.542;2023-07-20T09:48:52;26.50;64.50
45012;DHT22;63444;48.148;11.542;2023-07-20T09:51:21;26.60;65.80
45012;DHT22;63444;48.148;11.542;2023-07-20T09:53:48;26.50;65.30
45012;DHT22;63444;48.148;11.542;2023-07-20T09:56:16;26.60;65.10
45012;DHT22;63444;48.148;11.542;2023-07-20T09:58:44;26.60;64.10
45012;DHT22;63444;48.148;11.542;2023-07-20T10:01:11;26.70;64.90
45012;DHT22;63444;48.148;11.542;2023-07-20T10:03:41;26.60;64.40
45012;DHT22;63444;48.148;11.542;2023-07-20T10:06:10;26.50;64.40
45012;DHT22;63444;48.148;11.542;2023-07-20T10:08:41;26.20;65.20
45012;DHT22;63444;48.148;11.542;2023-07-20T10:11:08;26.20;66.00
45012;DHT22;63444;48.148;11.542;2023-07-20T10:13:38;26.10;65.30
45012;DHT22;63444;48.148;11.542;2023-07-20T10:16:11;26.10;66.80
45012;DHT22;63444;48.148;11.542;2023-07-20T10:18:59;26.10;66.40
45012;DHT22;63444;48.148;11.542;2023-07-20T10:21:28;26.20;66.60
45012;DHT22;63444;48.148;11.542;2023-07-20T10:23:56;26.20;66.70
45012;DHT22;63444;48.148;11.542;2023-07-20T10:26:22;26.20;65.60
45012;DHT22;63444;48.148;11.542;2023-07-20T10:28:47;26.00;66.80
45012;DHT22;63444;48.148;11.542;2023-07-20T10:31:13;25.90;66.20
45012;DHT22;63444;48.148;11.542;2023-07-20T10:33:41;25.70;66.70
45012;DHT22;63444;48.148;11.542;2023-07-20T10:36:07;25.50;68.00
45012;DHT22;63444;48.148;11.542;2023-07-20T10:38:52;25.50;68.00
45012;DHT22;63444;48.148;11.542;2023-07-20T10:44:19;25.50;67.70
45012;DHT22;63444;48.148;11.542;2023-07-20T10:46:46;25.50;68.30
45012;DHT22;63444;48.148;11.542;2023-07-20T10:49:14;25.60;68.30
45012;DHT22;63444;48.148;11.542;2023-07-20T10:59:47;25.70;68.30
45012;DHT22;63444;48.148;11.542;2023-07-20T11:02:12;25.80;68.90
45012;DHT22;63444;48.148;11.542;2023-07-20T11:04:46;25.80;68.30
45012;DHT22;63444;48.148;11.542;2023-07-20T11:07:36;25.90;68.30
45012;DHT22;63444;48.148;11.542;2023-07-20T11:10:13;26.00;67.60
45012;DHT22;63444;48.148;11.542;2023-07-20T11:12:40;26.00;67.80
45012;DHT22;63444;48.148;11.542;2023-07-20T11:15:06;26.10;67.90
45012;DHT22;63444;48.148;11.542;2023-07-20T11:17:32;26.20;67.50
45012;DHT22;63444;48.148;11.542;2023-07-20T11:19:59;26.30;67.00
45012;DHT22;63444;48.148;11.542;2023-07-20T11:22:31;26.40;67.50
45012;DHT22;63444;48.148;11.542;2023-07-20T11:24:57;26.50;66.40
45012;DHT22;63444;48.148;11.542;2023-07-20T11:27:23;26.50;66.90
45012;DHT22;63444;48.148;11.542;2023-07-20T11:29:49;26.50;66.70
45012;DHT22;63444;48.148;11.542;2023-07-20T11:32:23;26.60;66.50
45012;DHT22;63444;48.148;11.542;2023-07-20T11:34:49;26.60;66.00
45012;DHT22;63444;48.148;11.542;2023-07-20T11:37:15;26.60;65.70
45012;DHT22;63444;48.148;11.542;2023-07-20T11:39:41;26.60;65.30
45012;DHT22;63444;48.148;11.542;2023-07-20T11:42:07;26.40;65.40
45012;DHT22;63444;48.148;11.542;2023-07-20T11:44:33;26.30;65.80
45012;DHT22;63444;48.148;11.542;2023-07-20T11:47:12;26.20;66.10
45012;DHT22;63444;48.148;11.542;2023-07-20T11:49:39;26.10;66.00
45012;DHT22;63444;48.148;11.542;2023-07-20T11:52:13;25.90;66.30
45012;DHT22;63444;48.148;11.542;2023-07-20T11:54:41;25.60;66.60
45012;DHT22;63444;48.148;11.542;2023-07-20T11:57:06;25.70;67.20
45012;DHT22;63444;48.148;11.542;2023-07-20T11:59:33;25.80;67.10
45012;DHT22;63444;48.148;11.542;2023-07-20T12:02:01;25.90;67.30
45012;DHT22;63444;48.148;11.542;2023-07-20T12:04:28;26.00;67.10
45012;DHT22;63444;48.148;11.542;2023-07-20T12:06:54;26.10;66.90
45012;DHT22;63444;48.148;11.542;2023-07-20T12:09:20;26.00;67.60
45012;DHT22;63444;48.148;11.542;2023-07-20T12:11:49;26.00;66.50
45012;DHT22;63444;48.148;11.542;2023-07-20T12:14:15;26.00;67.20
45012;DHT22;63444;48.148;11.542;2023-07-20T12:16:41;26.00;67.70
45012;DHT22;63444;48.148;11.542;2023-07-20T12:19:11;26.00;67.50
45012;DHT22;63444;48.148;11.542;2023-07-20T12:21:38;26.00;66.90
45012;DHT22;63444;48.148;11.542;2023-07-20T12:24:05;26.00;66.70
45012;DHT22;63444;48.148;11.542;2023-07-20T12:26:32;26.10;66.70
45012;DHT22;63444;48.148;11.542;2023-07-20T12:28:58;26.20;66.50
45012;DHT22;63444;48.148;11.542;2023-07-20T12:31:26;26.30;66.70
45012;DHT22;63444;48.148;11.542;2023-07-20T12:33:52;26.30;66.40
45012;DHT22;63444;48.148;11.542;2023-07-20T12:36:18;26.40;66.20
45012;DHT22;63444;48.148;11.542;2023-07-20T12:38:44;26.40;66.30
45012;DHT22;63444;48.148;11.542;2023-07-20T12:41:11;26.40;66.50
45012;DHT22;63444;48.148;11.542;2023-07-20T12:43:44;26.30;66.10
45012;DHT22;63444;48.148;11.542;2023-07-20T12:46:10;26.00;66.50
45012;DHT22;63444;48.148;11.542;2023-07-20T12:48:40;25.90;66.60
45012;DHT22;63444;48.148;11.542;2023-07-20T12:51:08;25.90;67.10
45012;DHT22;63444;48.148;11.542;2023-07-20T12:53:34;26.00;67.40
45012;DHT22;63444;48.148;11.542;2023-07-20T12:56:00;26.10;66.70
45012;DHT22;63444;48.148;11.542;2023-07-20T12:58:26;26.20;66.90
45012;DHT22;63444;48.148;11.542;2023-07-20T13:00:52;26.30;66.40
45012;DHT22;63444;48.148;11.542;2023-07-20T13:03:18;26.30;66.60
45012;DHT22;63444;48.148;11.542;2023-07-20T13:05:48;26.40;66.70
45012;DHT22;63444;48.148;11.542;2023-07-20T13:08:14;26.40;66.50
45012;DHT22;63444;48.148;11.542;2023-07-20T13:10:39;26.40;66.10
45012;DHT22;63444;48.148;11.542;2023-07-20T13:13:06;26.40;66.30
45012;DHT22;63444;48.148;11.542;2023-07-20T13:15:32;26.40;66.30
45012;DHT22;63444;48.148;11.542;2023-07-20T13:18:05;26.40;66.60
45012;DHT22;63444;48.148;11.542;2023-07-20T13:20:31;26.40;66.50
45012;DHT22;63444;48.148;11.542;2023-07-20T13:22:56;26.40;66.10
45012;DHT22;63444;48.148;11.542;2023-07-20T13:25:22;26.40;65.30
45012;DHT22;63444;48.148;11.542;2023-07-20T13:27:47;26.40;65.50
45012;DHT22;63444;48.148;11.542;2023-07-20T13:30:13;26.40;66.50
45012;DHT22;63444;48.148;11.542;2023-07-20T13:32:42;26.40;66.70
45012;DHT22;63444;48.148;11.542;2023-07-20T13:35:09;26.40;65.80
45012;DHT22;63444;48.148;11.542;2023-07-20T13:37:34;26.20;65.60
45012;DHT22;63444;48.148;11.542;2023-07-20T13:40:00;26.10;66.20
45012;DHT22;63444;48.148;11.542;2023-07-20T13:42:25;26.20;65.60
45012;DHT22;63444;48.148;11.542;2023-07-20T13:44:51;26.20;66.30
45012;DHT22;63444;48.148;11.542;2023-07-20T13:47:17;26.20;65.30
45012;DHT22;63444;48.148;11.542;2023-07-20T13:49:43;26.10;65.30
45012;DHT22;63444;48.148;11.542;2023-07-20T13:52:09;26.10;65.50
45012;DHT22;63444;48.148;11.542;2023-07-20T13:54:35;26.20;65.70
45012;DHT22;63444;48.148;11.542;2023-07-20T13:57:00;26.20;66.70
45012;DHT22;63444;48.148;11.542;2023-07-20T13:59:26;26.20;65.80
45012;DHT22;63444;48.148;11.542;2023-07-20T14:01:51;26.30;65.70
45012;DHT22;63444;48.148;11.542;2023-07-20T14:04:17;26.20;64.50
45012;DHT22;63444;48.148;11.542;2023-07-20T14:06:43;26.20;65.10
45012;DHT22;63444;48.148;11.542;2023-07-20T14:09:09;26.20;64.60
45012;DHT22;63444;48.148;11.542;2023-07-20T14:11:35;26.20;65.00
45012;DHT22;63444;48.148;11.542;2023-07-20T14:14:00;26.30;65.00
45012;DHT22;63444;48.148;11.542;2023-07-20T14:16:26;26.30;64.60
45012;DHT22;63444;48.148;11.542;2023-07-20T14:18:52;26.20;64.40
45012;DHT22;63444;48.148;11.542;2023-07-20T14:21:19;26.10;64.50
45012;DHT22;63444;48.148;11.542;2023-07-20T14:23:46;26.10;64.60
45012;DHT22;63444;48.148;11.542;2023-07-20T14:26:12;26.10;64.70
45012;DHT22;63444;48.148;11.542;2023-07-20T14:28:38;26.20;64.70
45012;DHT22;63444;48.148;11.542;2023-07-20T14:31:04;26.20;64.60
45012;DHT22;63444;48.148;11.542;2023-07-20T14:33:30;26.20;64.00
45012;DHT22;63444;48.148;11.542;2023-07-20T14:35:56;26.30;64.00
45012;DHT22;63444;48.148;11.542;2023-07-20T14:38:21;26.30;63.30
45012;DHT22;63444;48.148;11.542;2023-07-20T14:40:47;26.30;63.50
45012;DHT22;63444;48.148;11.542;2023-07-20T14:43:14;26.40;65.10
45012;DHT22;63444;48.148;11.542;2023-07-20T14:45:41;26.40;65.60
45012;DHT22;63444;48.148;11.542;2023-07-20T14:48:07;26.40;65.30
45012;DHT22;63444;48.148;11.542;2023-07-20T14:50:34;26.40;64.90
45012;DHT22;63444;48.148;11.542;2023-07-20T14:53:00;26.30;65.00
45012;DHT22;63444;48.148;11.542;2023-07-20T14:55:26;26.30;65.40
45012;DHT22;63444;48.148;11.542;2023-07-20T14:57:52;26.30;64.90
45012;DHT22;63444;48.148;11.542;2023-07-20T15:00:18;26.20;65.00
45012;DHT22;63444;48.148;11.542;2023-07-20T15:02:43;26.10;65.20
45012;DHT22;63444;48.148;11.542;2023-07-20T15:05:12;26.00;66.20
45012;DHT22;63444;48.148;11.542;2023-07-20T15:07:38;26.00;65.70
45012;DHT22;63444;48.148;11.542;2023-07-20T15:10:04;26.00;65.50
45012;DHT22;63444;48.148;11.542;2023-07-20T15:12:31;26.00;65.20
45012;DHT22;63444;48.148;11.542;2023-07-20T15:15:07;26.00;65.50
45012;DHT22;63444;48.148;11.542;2023-07-20T15:17:34;26.10;65.40
45012;DHT22;63444;48.148;11.542;2023-07-20T15:20:02;26.20;65.10
45012;DHT22;63444;48.148;11.542;2023-07-20T15:22:32;26.20;64.70
45012;DHT22;63444;48.148;11.542;2023-07-20T15:24:58;26.20;64.50
45012;DHT22;63444;48.148;11.542;2023-07-20T15:27:24;26.30;64.60
45012;DHT22;63444;48.148;11.542;2023-07-20T15:29:50;26.30;64.50
45012;DHT22;63444;48.148;11.542;2023-07-20T15:32:17;26.40;64.60